createdAt,value
2023-05-17T00:00:15.219Z,79.2005
2023-05-17T00:01:23.303Z,78.6319
2023-05-17T00:02:31.359Z,79.9061
2023-05-17T00:03:39.584Z,80.7994
2023-05-17T00:04:47.654Z,80.4574
2023-05-17T00:05:55.642Z,81.4507
2023-05-17T00:07:03.804Z,80.6649
2023-05-17T00:08:11.946Z,82.5172
2023-05-17T00:09:19.961Z,80.6619
2023-05-17T00:10:28.090Z,81.2234
2023-05-17T00:11:35.925Z,79.9599
2023-05-17T00:12:44.028Z,81.8697
2023-05-17T00:13:52.076Z,83.9564
2023-05-17T00:14:59.964Z,84.0926
2023-05-17T00:16:08.081Z,82.5145
2023-05-17T00:17:16.099Z,79.2742
2023-05-17T00:18:24.391Z,82.2247
2023-05-17T00:19:32.385Z,80.0219
2023-05-17T00:20:40.426Z,82.3853
2023-05-17T00:21:48.493Z,81.8244
2023-05-17T00:22:56.568Z,80.6321
2023-05-17T00:24:04.638Z,78.7223
2023-05-17T00:25:12.829Z,79.5487
2023-05-17T00:26:20.770Z,81.3345
2023-05-17T00:27:28.786Z,80.8216
2023-05-17T00:28:36.872Z,81.3987
2023-05-17T00:29:44.851Z,80.9004
2023-05-17T00:30:52.819Z,79.6527
2023-05-17T00:32:00.889Z,78.7368
2023-05-17T00:33:09.186Z,77.7985
2023-05-17T00:34:17.154Z,78.7224
2023-05-17T00:35:25.276Z,78.5506
2023-05-17T00:36:33.501Z,78.4401
2023-05-17T00:37:41.454Z,76.6844
2023-05-17T00:38:49.438Z,76.3072
2023-05-17T00:39:57.528Z,78.8054
2023-05-17T00:41:05.561Z,77.9440
2023-05-17T00:42:13.879Z,76.8816
2023-05-17T00:43:21.528Z,80.2634
2023-05-17T00:44:29.584Z,75.3085
2023-05-17T00:45:37.649Z,75.8583
2023-05-17T00:46:45.854Z,76.5007
2023-05-17T00:47:53.990Z,76.6712
2023-05-17T00:49:01.958Z,79.3118
2023-05-17T00:50:10.140Z,79.3771
2023-05-17T00:51:18.054Z,76.6315
2023-05-17T00:52:26.243Z,75.3923
2023-05-17T00:53:34.205Z,78.7524
2023-05-17T00:54:42.254Z,79.6716
2023-05-17T00:55:50.297Z,76.2990
2023-05-17T00:56:58.371Z,76.3596
2023-05-17T00:58:06.318Z,79.1497
2023-05-17T00:59:14.362Z,77.3512
2023-05-17T01:00:22.419Z,75.8796
2023-05-17T01:01:30.751Z,75.7764
2023-05-17T01:02:38.724Z,76.5795
2023-05-17T01:03:46.906Z,75.8625
2023-05-17T01:04:54.852Z,74.4900
2023-05-17T01:06:02.944Z,75.4302
2023-05-17T01:07:11.081Z,75.2648
2023-05-17T01:08:18.951Z,74.5779
2023-05-17T01:09:27.111Z,75.7089
2023-05-17T01:10:35.117Z,74.3396
2023-05-17T01:11:43.162Z,74.5539
2023-05-17T01:12:51.072Z,76.5117
2023-05-17T01:13:59.261Z,75.0567
2023-05-17T01:15:07.223Z,76.5137
2023-05-17T01:16:15.442Z,73.8777
2023-05-17T01:17:23.515Z,75.9379
2023-05-17T01:18:31.541Z,75.3853
2023-05-17T01:19:39.685Z,74.9606
2023-05-17T01:20:47.631Z,73.9883
2023-05-17T01:21:56.083Z,73.6540
2023-05-17T01:23:03.731Z,75.5352
2023-05-17T01:24:11.850Z,76.5210
2023-05-17T01:25:19.820Z,74.2624
2023-05-17T01:26:27.969Z,73.9298
2023-05-17T01:27:35.810Z,74.9695
2023-05-17T01:28:43.904Z,72.7822
2023-05-17T01:29:52.057Z,74.1615
2023-05-17T01:31:00.131Z,74.7245
2023-05-17T01:32:08.251Z,73.5008
2023-05-17T01:33:16.400Z,74.0461
2023-05-17T01:34:24.478Z,72.9411
2023-05-17T01:35:32.377Z,73.1157
2023-05-17T01:36:40.438Z,75.8072
2023-05-17T01:37:48.753Z,75.4715
2023-05-17T01:38:56.702Z,77.0201
2023-05-17T01:40:04.647Z,75.0322
2023-05-17T01:41:12.712Z,75.9899
2023-05-17T01:42:20.591Z,73.7880
2023-05-17T01:43:28.698Z,74.9835
2023-05-17T01:44:36.745Z,75.0496
2023-05-17T01:45:44.962Z,72.1560
2023-05-17T01:46:53.164Z,72.0379
2023-05-17T01:48:01.087Z,72.3865
2023-05-17T01:49:09.160Z,74.4120
2023-05-17T01:50:17.192Z,73.2504
2023-05-17T01:51:25.231Z,74.5789
2023-05-17T01:52:33.376Z,73.2210
2023-05-17T01:53:41.448Z,70.9296
2023-05-17T01:54:49.605Z,71.8823
2023-05-17T01:55:57.558Z,74.1576
2023-05-17T01:57:05.440Z,74.5193
2023-05-17T01:58:13.478Z,73.9352
2023-05-17T01:59:21.553Z,75.3201
2023-05-17T02:00:29.844Z,72.5517
2023-05-17T02:01:37.897Z,74.6287
2023-05-17T02:02:46.096Z,73.3907
2023-05-17T02:03:54.046Z,73.3488
2023-05-17T02:05:02.089Z,72.5053
2023-05-17T02:06:10.124Z,74.1911
2023-05-17T02:07:18.101Z,74.6838
2023-05-17T02:08:26.273Z,73.6952
2023-05-17T02:09:34.293Z,73.6495
2023-05-17T02:10:42.403Z,74.6889
2023-05-17T02:11:50.318Z,73.4000
2023-05-17T02:12:58.327Z,79.3661
2023-05-17T02:14:06.403Z,76.3001
2023-05-17T02:15:14.671Z,76.4544
2023-05-17T02:16:22.678Z,71.1335
2023-05-17T02:17:31.008Z,71.6348
2023-05-17T02:18:38.939Z,72.9522
2023-05-17T02:19:46.888Z,74.0099
2023-05-17T02:20:54.897Z,74.0895
2023-05-17T02:22:02.965Z,77.1061
2023-05-17T02:23:11.113Z,73.8729
2023-05-17T02:24:19.097Z,70.9088
2023-05-17T02:25:27.452Z,69.7823
2023-05-17T02:26:35.106Z,71.8680
2023-05-17T02:27:43.166Z,70.7416
2023-05-17T02:28:51.251Z,70.6040
2023-05-17T02:29:59.419Z,71.9152
2023-05-17T02:31:07.489Z,71.5857
2023-05-17T02:32:15.622Z,73.7728
2023-05-17T02:33:23.773Z,74.1789
2023-05-17T02:34:31.755Z,74.1428
2023-05-17T02:35:39.741Z,71.6768
2023-05-17T02:36:47.786Z,72.6909
2023-05-17T02:37:55.915Z,73.4844
2023-05-17T02:39:03.936Z,73.0550
2023-05-17T02:40:12.113Z,73.5039
2023-05-17T02:41:19.956Z,71.0162
2023-05-17T02:42:27.981Z,71.7708
2023-05-17T02:43:36.165Z,72.2123
2023-05-17T02:44:44.178Z,71.8348
2023-05-17T02:45:52.430Z,72.7197
2023-05-17T02:47:00.469Z,73.2267
2023-05-17T02:48:08.406Z,71.3446
2023-05-17T02:49:16.618Z,70.0233
2023-05-17T02:50:24.703Z,72.4519
2023-05-17T02:51:32.870Z,72.7279
2023-05-17T02:52:40.770Z,69.9484
2023-05-17T02:53:48.857Z,70.5536
2023-05-17T02:54:57.020Z,71.3109
2023-05-17T02:56:04.990Z,71.7560
2023-05-17T02:57:13.110Z,71.9078
2023-05-17T02:58:21.106Z,70.9278
2023-05-17T02:59:29.007Z,71.8547
2023-05-17T03:00:37.077Z,70.2782
2023-05-17T03:01:45.181Z,71.6243
2023-05-17T03:02:53.436Z,69.3106
2023-05-17T03:04:01.555Z,71.3557
2023-05-17T03:05:09.688Z,70.8064
2023-05-17T03:06:17.527Z,71.9359
2023-05-17T03:07:25.749Z,70.6409
2023-05-17T03:08:33.713Z,70.5043
2023-05-17T03:09:41.715Z,70.2081
2023-05-17T03:10:49.787Z,71.2673
2023-05-17T03:11:57.868Z,70.4803
2023-05-17T03:13:05.929Z,70.9969
2023-05-17T03:14:13.866Z,70.7161
2023-05-17T03:15:21.910Z,71.5254
2023-05-17T03:16:29.961Z,72.1309
2023-05-17T03:17:38.251Z,72.1419
2023-05-17T03:18:46.352Z,71.1475
2023-05-17T03:19:54.450Z,70.0509
2023-05-17T03:21:02.391Z,72.8841
2023-05-17T03:22:10.431Z,72.5769
2023-05-17T03:23:18.609Z,70.7937
2023-05-17T03:24:26.551Z,70.3274
2023-05-17T03:25:34.658Z,69.6633
2023-05-17T03:26:42.690Z,70.3849
2023-05-17T03:27:50.857Z,70.2902
2023-05-17T03:28:58.734Z,71.5152
2023-05-17T03:30:06.721Z,70.8252
2023-05-17T03:31:14.837Z,69.8489
2023-05-17T03:32:22.993Z,72.3129
2023-05-17T03:33:31.127Z,71.5318
2023-05-17T03:34:39.125Z,71.1974
2023-05-17T03:35:47.184Z,71.0943
2023-05-17T03:36:55.309Z,70.6077
2023-05-17T03:38:03.319Z,71.4304
2023-05-17T03:39:11.700Z,74.2017
2023-05-17T03:40:19.446Z,75.2086
2023-05-17T03:41:27.520Z,72.0350
2023-05-17T03:42:35.617Z,72.0226
2023-05-17T03:43:43.495Z,70.1097
2023-05-17T03:44:51.561Z,70.5826
2023-05-17T03:45:59.694Z,71.6783
2023-05-17T03:47:07.808Z,70.6412
2023-05-17T03:48:16.046Z,70.9164
2023-05-17T03:49:23.809Z,70.2588
2023-05-17T03:50:32.086Z,70.8529
2023-05-17T03:51:40.113Z,72.1301
2023-05-17T03:52:48.185Z,71.1530
2023-05-17T03:53:56.297Z,71.2709
2023-05-17T03:55:04.286Z,72.0943
2023-05-17T03:56:12.483Z,73.8210
2023-05-17T03:57:20.369Z,75.2209
2023-05-17T03:58:28.345Z,71.1408
2023-05-17T03:59:36.449Z,70.9844
2023-05-17T04:00:44.468Z,73.2931
2023-05-17T04:01:52.710Z,71.8788
2023-05-17T04:03:00.840Z,73.0587
2023-05-17T04:04:08.834Z,71.5401
2023-05-17T04:05:16.995Z,71.9028
2023-05-17T04:06:24.857Z,72.2898
2023-05-17T04:07:32.992Z,71.0499
2023-05-17T04:08:41.290Z,71.9844
2023-05-17T04:09:49.188Z,71.2870
2023-05-17T04:10:57.244Z,72.1157
2023-05-17T04:12:05.246Z,73.7589
2023-05-17T04:13:13.197Z,72.2847
2023-05-17T04:14:21.257Z,72.3276
2023-05-17T04:15:29.493Z,72.7570
2023-05-17T04:16:37.544Z,73.5040
2023-05-17T04:17:45.604Z,74.4225
2023-05-17T04:18:53.756Z,75.2264
2023-05-17T04:20:01.736Z,72.4746
2023-05-17T04:21:09.965Z,73.7150
2023-05-17T04:22:17.911Z,71.3495
2023-05-17T04:23:25.781Z,72.6276
2023-05-17T04:24:34.039Z,72.2215
2023-05-17T04:25:42.190Z,71.9826
2023-05-17T04:26:50.094Z,75.8100
2023-05-17T04:27:58.324Z,72.4994
2023-05-17T04:29:06.233Z,72.4335
2023-05-17T04:30:14.253Z,72.3455
2023-05-17T04:31:22.354Z,71.5727
2023-05-17T04:32:30.470Z,70.7001
2023-05-17T04:33:38.555Z,71.4937
2023-05-17T04:34:46.553Z,71.7675
2023-05-17T04:35:54.489Z,72.5905
2023-05-17T04:37:02.644Z,75.4589
2023-05-17T04:38:10.625Z,73.5950
2023-05-17T04:39:18.873Z,73.2371
2023-05-17T04:40:27.255Z,72.3173
2023-05-17T04:41:35.145Z,70.9716
2023-05-17T04:42:43.203Z,71.6376
2023-05-17T04:43:51.251Z,75.5222
2023-05-17T04:44:59.202Z,73.3004
2023-05-17T04:46:07.225Z,72.7875
2023-05-17T04:47:15.276Z,73.1586
2023-05-17T04:48:23.414Z,71.9918
2023-05-17T04:49:31.398Z,70.1238
2023-05-17T04:50:39.393Z,69.2628
2023-05-17T04:51:47.644Z,70.6914
2023-05-17T04:52:55.472Z,71.8455
2023-05-17T04:54:03.653Z,70.3945
2023-05-17T04:55:11.751Z,70.6500
2023-05-17T04:56:20.003Z,71.6853
2023-05-17T04:57:27.879Z,72.1638
2023-05-17T04:58:35.916Z,72.5838
2023-05-17T04:59:43.979Z,75.6907
2023-05-17T05:00:51.940Z,73.8426
2023-05-17T05:02:00.162Z,71.3560
2023-05-17T05:03:08.361Z,72.7729
2023-05-17T05:04:16.310Z,71.8855
2023-05-17T05:05:24.327Z,72.4042
2023-05-17T05:06:32.366Z,74.7485
2023-05-17T05:07:40.595Z,72.7101
2023-05-17T05:08:48.488Z,72.3732
2023-05-17T05:09:56.425Z,72.9834
2023-05-17T05:11:04.502Z,73.0770
2023-05-17T05:12:12.598Z,73.3814
2023-05-17T05:13:20.791Z,72.8520
2023-05-17T05:14:28.855Z,72.8511
2023-05-17T05:15:36.866Z,74.9326
2023-05-17T05:16:44.926Z,76.0675
2023-05-17T05:17:53.144Z,70.5764
2023-05-17T05:19:01.246Z,71.7787
2023-05-17T05:20:09.109Z,72.0912
2023-05-17T05:21:17.157Z,70.1453
2023-05-17T05:22:25.248Z,74.8354
2023-05-17T05:23:33.310Z,74.7900
2023-05-17T05:24:41.846Z,76.6694
2023-05-17T05:25:49.299Z,72.9387
2023-05-17T05:26:57.360Z,73.5335
2023-05-17T05:28:05.655Z,70.8648
2023-05-17T05:29:13.684Z,71.3762
2023-05-17T05:30:21.732Z,71.8018
2023-05-17T05:31:29.760Z,72.1656
2023-05-17T05:32:37.966Z,74.4774
2023-05-17T05:33:45.928Z,70.5874
2023-05-17T05:34:53.935Z,69.8303
2023-05-17T05:36:02.012Z,70.9233
2023-05-17T05:37:10.038Z,69.8073
2023-05-17T05:38:18.101Z,70.9451
2023-05-17T05:39:26.068Z,73.5627
2023-05-17T05:40:34.100Z,73.5802
2023-05-17T05:41:42.224Z,73.2760
2023-05-17T05:42:50.344Z,72.4797
2023-05-17T05:43:58.652Z,73.6815
2023-05-17T05:45:06.515Z,70.3275
2023-05-17T05:46:14.573Z,72.1618
2023-05-17T05:47:22.677Z,71.0961
2023-05-17T05:48:30.899Z,72.2097
2023-05-17T05:49:38.717Z,74.1859
2023-05-17T05:50:46.819Z,73.9658
2023-05-17T05:51:54.853Z,71.4838
2023-05-17T05:53:14.522Z,73.1482
2023-05-17T05:54:15.705Z,71.9207
2023-05-17T05:55:23.770Z,73.6671
2023-05-17T05:56:31.970Z,71.8188
2023-05-17T05:57:40.009Z,70.9130
2023-05-17T05:58:48.143Z,68.9209
2023-05-17T05:59:56.251Z,69.8912
2023-05-17T06:01:06.137Z,70.3986
2023-05-17T06:02:17.123Z,69.3488
2023-05-17T06:03:25.370Z,68.8086
2023-05-17T06:04:44.582Z,71.0262
2023-05-17T06:05:46.133Z,69.5265
2023-05-17T06:06:54.331Z,69.7297
2023-05-17T06:08:02.204Z,69.3813
2023-05-17T06:09:10.363Z,72.7046
2023-05-17T06:10:18.500Z,70.6681
2023-05-17T06:11:26.744Z,69.5884
2023-05-17T06:12:34.575Z,67.3846
2023-05-17T06:13:42.620Z,70.8507
2023-05-17T06:14:50.744Z,69.9090
2023-05-17T06:15:58.907Z,68.7262
2023-05-17T06:17:06.835Z,67.0250
2023-05-17T06:18:14.933Z,68.2518
2023-05-17T06:19:23.089Z,69.4780
2023-05-17T06:20:31.370Z,71.1280
2023-05-17T06:21:38.957Z,69.9292
2023-05-17T06:22:46.984Z,70.9749
2023-05-17T06:23:55.071Z,70.1468
2023-05-17T06:25:03.239Z,68.0682
2023-05-17T06:26:11.410Z,68.8963
2023-05-17T06:27:19.465Z,70.2205
2023-05-17T06:28:27.530Z,69.7749
2023-05-17T06:29:35.452Z,70.2052
2023-05-17T06:30:43.574Z,69.4877
2023-05-17T06:31:51.650Z,71.0381
2023-05-17T06:32:59.892Z,69.4087
2023-05-17T06:34:07.881Z,69.5685
2023-05-17T06:35:15.787Z,70.0057
2023-05-17T06:36:24.367Z,68.1880
2023-05-17T06:37:31.753Z,67.0446
2023-05-17T06:38:39.860Z,68.0462
2023-05-17T06:39:55.935Z,69.0151
2023-05-17T06:41:00.951Z,67.5890
2023-05-17T06:42:09.045Z,68.0595
2023-05-17T06:43:17.047Z,69.1877
2023-05-17T06:44:25.348Z,68.1278
2023-05-17T06:45:33.219Z,67.6512
2023-05-17T06:46:41.299Z,70.7476
2023-05-17T06:47:49.687Z,69.0577
2023-05-17T06:48:57.401Z,67.2410
2023-05-17T06:50:05.308Z,68.2994
2023-05-17T06:51:13.362Z,66.8310
2023-05-17T06:52:21.858Z,68.8499
2023-05-17T06:53:29.683Z,70.9864
2023-05-17T06:54:37.761Z,71.4909
2023-05-17T06:55:45.850Z,69.1712
2023-05-17T06:56:53.872Z,65.3912
2023-05-17T06:58:02.117Z,68.1138
2023-05-17T06:59:10.128Z,70.0789
2023-05-17T07:00:18.030Z,67.3208
2023-05-17T07:01:26.236Z,68.2190
2023-05-17T07:02:34.887Z,68.2665
2023-05-17T07:03:42.342Z,70.6759
2023-05-17T07:04:50.203Z,72.7864
2023-05-17T07:05:58.236Z,73.5792
2023-05-17T07:07:06.410Z,67.2210
2023-05-17T07:08:14.503Z,68.4957
2023-05-17T07:09:22.568Z,68.4994
2023-05-17T07:10:30.601Z,66.8570
2023-05-17T07:11:38.605Z,69.7665
2023-05-17T07:12:46.727Z,67.6305
2023-05-17T07:13:54.744Z,68.6287
2023-05-17T07:15:02.987Z,68.7660
2023-05-17T07:16:11.157Z,69.5964
2023-05-17T07:17:18.789Z,68.0609
2023-05-17T07:18:27.033Z,68.8521
2023-05-17T07:19:35.124Z,70.6172
2023-05-17T07:20:43.113Z,68.9273
2023-05-17T07:21:51.151Z,67.9395
2023-05-17T07:22:59.257Z,68.4148
2023-05-17T07:24:07.447Z,67.2362
2023-05-17T07:25:15.384Z,68.4799
2023-05-17T07:26:23.413Z,66.8147
2023-05-17T07:27:31.521Z,68.8078
2023-05-17T07:28:39.537Z,72.2356
2023-05-17T07:29:47.633Z,66.5572
2023-05-17T07:30:55.648Z,65.2393
2023-05-17T07:32:03.592Z,66.2440
2023-05-17T07:33:11.730Z,67.3658
2023-05-17T07:34:19.716Z,64.7560
2023-05-17T07:35:28.253Z,65.0290
2023-05-17T07:36:36.002Z,65.6045
2023-05-17T07:37:44.098Z,66.4997
2023-05-17T07:38:52.077Z,65.9208
2023-05-17T07:40:00.308Z,65.4721
2023-05-17T07:41:08.322Z,66.2999
2023-05-17T07:42:16.278Z,65.7441
2023-05-17T07:43:24.305Z,64.5532
2023-05-17T07:44:32.414Z,64.5423
2023-05-17T07:45:40.469Z,65.9074
2023-05-17T07:46:48.464Z,65.8610
2023-05-17T07:47:56.534Z,66.6880
2023-05-17T07:49:04.690Z,68.4469
2023-05-17T07:50:12.679Z,69.0157
2023-05-17T07:51:20.775Z,65.1124
2023-05-17T07:52:28.928Z,69.4246
2023-05-17T07:53:36.890Z,63.7133
2023-05-17T07:54:44.930Z,68.8284
2023-05-17T07:55:53.151Z,64.3079
2023-05-17T07:57:01.225Z,63.9955
2023-05-17T07:58:09.245Z,65.6494
2023-05-17T07:59:17.178Z,64.3109
2023-05-17T08:00:25.222Z,64.4829
2023-05-17T08:01:33.216Z,65.9489
2023-05-17T08:02:41.343Z,66.4204
2023-05-17T08:03:49.351Z,66.1414
2023-05-17T08:04:57.529Z,67.5140
2023-05-17T08:06:05.538Z,67.2368
2023-05-17T08:07:13.691Z,63.5198
2023-05-17T08:08:21.658Z,62.9606
2023-05-17T08:09:29.795Z,62.7680
2023-05-17T08:10:37.914Z,61.9324
2023-05-17T08:11:46.081Z,63.1346
2023-05-17T08:12:53.928Z,61.9990
2023-05-17T08:14:02.016Z,64.2516
2023-05-17T08:15:10.128Z,66.1747
2023-05-17T08:16:17.973Z,66.6382
2023-05-17T08:17:26.041Z,66.4676
2023-05-17T08:18:34.170Z,62.9503
2023-05-17T08:19:42.664Z,61.5691
2023-05-17T08:20:50.393Z,63.8450
2023-05-17T08:21:58.381Z,62.7269
2023-05-17T08:23:06.577Z,63.2577
2023-05-17T08:24:14.533Z,61.6676
2023-05-17T08:25:22.603Z,64.2114
2023-05-17T08:26:30.679Z,60.5167
2023-05-17T08:27:38.698Z,61.5947
2023-05-17T08:28:46.893Z,60.0828
2023-05-17T08:29:54.838Z,60.0610
2023-05-17T08:31:02.760Z,60.0429
2023-05-17T08:32:10.843Z,60.8602
2023-05-17T08:33:18.922Z,63.3898
2023-05-17T08:34:27.027Z,66.7111
2023-05-17T08:35:35.109Z,64.6131
2023-05-17T08:36:43.222Z,63.7343
2023-05-17T08:37:51.298Z,63.1831
2023-05-17T08:38:59.348Z,64.2550
2023-05-17T08:40:07.428Z,64.7798
2023-05-17T08:41:15.393Z,62.8963
2023-05-17T08:42:23.429Z,64.0091
2023-05-17T08:43:31.562Z,62.0231
2023-05-17T08:44:39.600Z,61.4214
2023-05-17T08:45:47.515Z,61.0545
2023-05-17T08:46:55.572Z,63.5445
2023-05-17T08:48:03.634Z,62.1349
2023-05-17T08:49:11.839Z,65.3703
2023-05-17T08:50:19.908Z,61.0958
2023-05-17T08:51:27.906Z,63.7549
2023-05-17T08:52:35.981Z,61.8548
2023-05-17T08:53:44.053Z,60.9353
2023-05-17T08:54:52.150Z,61.5742
2023-05-17T08:56:00.192Z,61.1925
2023-05-17T08:57:08.215Z,59.4719
2023-05-17T08:58:16.325Z,57.9608
2023-05-17T08:59:24.360Z,60.5091
2023-05-17T09:00:32.330Z,57.4293
2023-05-17T09:01:40.354Z,56.2432
2023-05-17T09:02:48.465Z,58.3275
2023-05-17T09:03:56.678Z,57.1922
2023-05-17T09:05:04.707Z,56.5212
2023-05-17T09:06:12.753Z,59.2375
2023-05-17T09:07:20.766Z,58.3137
2023-05-17T09:08:28.859Z,62.3538
2023-05-17T09:09:36.894Z,57.9436
2023-05-17T09:10:44.971Z,61.5644
2023-05-17T09:11:53.075Z,62.1408
2023-05-17T09:13:01.078Z,61.3137
2023-05-17T09:14:09.154Z,59.0182
2023-05-17T09:15:17.059Z,57.9570
2023-05-17T09:16:25.136Z,63.7300
2023-05-17T09:17:33.232Z,68.2273
2023-05-17T09:18:41.685Z,60.5629
2023-05-17T09:19:49.438Z,63.3277
2023-05-17T09:20:57.431Z,61.2870
2023-05-17T09:22:05.530Z,61.3740
2023-05-17T09:23:13.693Z,60.0719
2023-05-17T09:24:22.835Z,62.2809
2023-05-17T09:25:34.582Z,63.3560
2023-05-17T09:26:42.668Z,62.2668
2023-05-17T09:27:50.675Z,64.2820
2023-05-17T09:28:58.684Z,63.2560
2023-05-17T09:30:06.670Z,63.5037
2023-05-17T09:31:14.742Z,65.2307
2023-05-17T09:32:23.024Z,61.8905
2023-05-17T09:33:31.011Z,65.6513
2023-05-17T09:34:39.135Z,64.7282
2023-05-17T09:35:47.095Z,63.9512
2023-05-17T09:36:55.171Z,63.4773
2023-05-17T09:38:03.348Z,64.0278
2023-05-17T09:39:11.234Z,63.0098
2023-05-17T09:40:19.414Z,62.5387
2023-05-17T09:41:27.502Z,61.8800
2023-05-17T09:42:35.422Z,63.2637
2023-05-17T09:43:43.389Z,63.6253
2023-05-17T09:44:51.394Z,63.4875
2023-05-17T09:45:59.524Z,67.1306
2023-05-17T09:47:07.699Z,65.0359
2023-05-17T09:48:15.804Z,66.4928
2023-05-17T09:49:23.798Z,63.7434
2023-05-17T09:50:31.865Z,63.8523
2023-05-17T09:51:39.940Z,64.9713
2023-05-17T09:52:47.981Z,66.9570
2023-05-17T09:53:56.020Z,66.5293
2023-05-17T09:55:04.087Z,67.1216
2023-05-17T09:56:12.129Z,65.5210
2023-05-17T09:57:20.222Z,65.1293
2023-05-17T09:58:28.145Z,67.2434
2023-05-17T09:59:36.199Z,64.1467
2023-05-17T10:00:44.255Z,62.2976
2023-05-17T10:01:52.471Z,63.4880
2023-05-17T10:03:00.708Z,61.9772
2023-05-17T10:04:08.712Z,66.4143
2023-05-17T10:05:16.757Z,61.9356
2023-05-17T10:06:43.714Z,63.5781
2023-05-17T10:07:37.665Z,65.3611
2023-05-17T10:08:45.708Z,58.7865
2023-05-17T10:09:53.799Z,56.6363
2023-05-17T10:11:01.822Z,57.1992
2023-05-17T10:12:09.701Z,60.5231
2023-05-17T10:13:17.793Z,60.1845
2023-05-17T10:14:25.927Z,57.5241
2023-05-17T10:15:34.186Z,56.2401
2023-05-17T10:16:42.131Z,55.3119
2023-05-17T10:17:50.178Z,54.8768
2023-05-17T10:18:58.292Z,55.1773
2023-05-17T10:20:06.349Z,51.9069
2023-05-17T10:21:14.296Z,50.8871
2023-05-17T10:22:23.907Z,50.5611
2023-05-17T10:23:30.445Z,49.5560
2023-05-17T10:24:38.484Z,55.1681
2023-05-17T10:25:46.643Z,50.4813
2023-05-17T10:26:54.517Z,49.2044
2023-05-17T10:28:02.608Z,46.8860
2023-05-17T10:29:10.668Z,51.9030
2023-05-17T10:30:18.764Z,52.2037
2023-05-17T10:31:27.033Z,50.5240
2023-05-17T10:32:34.964Z,50.6373
2023-05-17T10:33:43.095Z,51.9188
2023-05-17T10:35:01.394Z,54.3195
2023-05-17T10:36:03.975Z,52.5470
2023-05-17T10:37:12.128Z,52.4035
2023-05-17T10:38:21.978Z,50.6858
2023-05-17T10:39:32.912Z,50.0563
2023-05-17T10:40:41.002Z,51.1028
2023-05-17T10:41:49.023Z,49.8957
2023-05-17T10:42:57.257Z,48.8068
2023-05-17T10:44:05.329Z,47.8016
2023-05-17T10:45:13.353Z,50.3732
2023-05-17T10:46:21.465Z,48.2260
2023-05-17T10:47:29.511Z,46.5605
2023-05-17T10:48:37.693Z,52.3414
2023-05-17T10:49:45.655Z,50.3588
2023-05-17T10:51:01.184Z,43.9932
2023-05-17T10:52:06.467Z,45.6605
2023-05-17T10:53:14.531Z,47.2732
2023-05-17T10:54:22.633Z,45.8431
2023-05-17T10:55:30.804Z,49.7802
2023-05-17T10:56:38.871Z,48.0100
2023-05-17T10:57:51.154Z,47.3002
2023-05-17T10:58:59.856Z,47.4661
2023-05-17T11:00:07.946Z,50.3945
2023-05-17T11:01:15.893Z,49.9817
2023-05-17T11:02:24.130Z,51.1695
2023-05-17T11:03:32.143Z,49.2738
2023-05-17T11:04:40.352Z,48.8463
2023-05-17T11:05:48.265Z,52.1261
2023-05-17T11:06:56.198Z,56.9970
2023-05-17T11:08:04.282Z,48.8893
2023-05-17T11:09:12.461Z,50.0144
2023-05-17T11:10:20.550Z,48.6927
2023-05-17T11:11:28.575Z,52.1284
2023-05-17T11:12:38.563Z,51.9694
2023-05-17T11:13:49.682Z,51.0736
2023-05-17T11:14:57.703Z,47.9168
2023-05-17T11:16:05.716Z,48.1390
2023-05-17T11:17:13.854Z,47.4538
2023-05-17T11:18:30.456Z,52.7272
2023-05-17T11:19:34.675Z,50.0956
2023-05-17T11:20:42.921Z,44.7009
2023-05-17T11:21:50.770Z,45.6322
2023-05-17T11:22:59.036Z,43.3078
2023-05-17T11:24:06.978Z,48.9340
2023-05-17T11:25:15.016Z,44.8508
2023-05-17T11:26:23.112Z,46.9745
2023-05-17T11:27:31.176Z,47.3548
2023-05-17T11:28:39.428Z,49.4851
2023-05-17T11:29:47.263Z,48.4161
2023-05-17T11:30:55.373Z,48.3108
2023-05-17T11:32:03.406Z,49.7801
2023-05-17T11:33:21.360Z,51.0685
2023-05-17T11:34:24.371Z,54.2106
2023-05-17T11:35:32.352Z,49.7365
2023-05-17T11:36:40.431Z,50.4321
2023-05-17T11:37:48.691Z,49.8489
2023-05-17T11:39:07.472Z,56.0311
2023-05-17T11:40:09.672Z,57.7697
2023-05-17T11:41:26.043Z,53.6197
2023-05-17T11:42:30.600Z,52.8336
2023-05-17T11:43:38.632Z,51.5887
2023-05-17T11:44:46.682Z,51.1117
2023-05-17T11:45:54.813Z,56.2745
2023-05-17T11:47:02.776Z,52.3399
2023-05-17T11:48:10.857Z,54.2146
2023-05-17T11:49:33.510Z,58.0385
2023-05-17T11:50:31.889Z,53.4000
2023-05-17T11:51:39.981Z,53.2541
2023-05-17T11:52:47.978Z,54.4046
2023-05-17T11:53:56.130Z,52.8121
2023-05-17T11:55:04.364Z,52.1923
2023-05-17T11:56:12.264Z,50.6220
2023-05-17T11:57:20.302Z,52.4462
2023-05-17T11:58:28.289Z,51.9353
2023-05-17T11:59:36.390Z,50.9349
2023-05-17T12:00:44.325Z,49.1335
2023-05-17T12:01:52.364Z,55.0787
2023-05-17T12:03:00.489Z,55.5615
2023-05-17T12:04:08.636Z,54.3691
2023-05-17T12:05:16.720Z,45.0811
2023-05-17T12:06:24.719Z,44.8041
2023-05-17T12:07:32.804Z,48.3181
2023-05-17T12:08:40.867Z,46.9367
2023-05-17T12:09:48.843Z,47.2301
2023-05-17T12:10:57.061Z,50.2965
2023-05-17T12:12:05.080Z,48.7955
2023-05-17T12:13:13.083Z,50.1406
2023-05-17T12:14:21.310Z,49.2810
2023-05-17T12:15:29.068Z,49.2407
2023-05-17T12:16:37.153Z,49.5327
2023-05-17T12:17:45.398Z,48.5240
2023-05-17T12:18:53.586Z,50.3399
2023-05-17T12:20:01.667Z,46.9985
2023-05-17T12:21:09.510Z,42.8498
2023-05-17T12:22:17.612Z,45.3415
2023-05-17T12:23:25.623Z,42.1529
2023-05-17T12:24:33.683Z,43.0829
2023-05-17T12:25:41.909Z,46.6323
2023-05-17T12:26:49.936Z,45.1470
2023-05-17T12:27:57.720Z,46.2922
2023-05-17T12:29:05.861Z,47.0057
2023-05-17T12:30:13.849Z,45.8245
2023-05-17T12:31:21.933Z,43.6805
2023-05-17T12:32:29.984Z,48.7222
2023-05-17T12:33:38.301Z,43.3964
2023-05-17T12:34:46.215Z,38.5658
2023-05-17T12:35:54.358Z,36.7324
2023-05-17T12:37:02.363Z,36.4188
2023-05-17T12:38:10.403Z,43.8150
2023-05-17T12:39:18.476Z,36.5109
2023-05-17T12:40:26.597Z,38.4745
2023-05-17T12:41:34.593Z,40.2930
2023-05-17T12:42:42.692Z,42.1249
2023-05-17T12:43:54.962Z,38.4652
2023-05-17T12:45:03.521Z,38.2401
2023-05-17T12:46:11.587Z,37.5348
2023-05-17T12:47:19.624Z,39.0173
2023-05-17T12:48:27.943Z,42.0300
2023-05-17T12:49:35.864Z,40.9325
2023-05-17T12:50:43.962Z,44.5834
2023-05-17T12:51:52.063Z,41.1061
2023-05-17T12:53:00.125Z,42.7088
2023-05-17T12:54:08.250Z,42.8990
2023-05-17T12:55:16.252Z,43.3380
2023-05-17T12:56:24.279Z,47.4996
2023-05-17T12:57:32.337Z,43.7450
2023-05-17T12:58:40.396Z,43.1780
2023-05-17T12:59:48.442Z,46.2784
2023-05-17T13:00:56.409Z,38.9107
2023-05-17T13:02:04.499Z,38.7353
2023-05-17T13:03:12.790Z,33.4618
2023-05-17T13:04:20.730Z,35.1236
2023-05-17T13:05:28.905Z,32.4968
2023-05-17T13:06:36.862Z,33.1360
2023-05-17T13:07:45.045Z,35.9267
2023-05-17T13:08:52.954Z,38.1602
2023-05-17T13:10:01.081Z,39.3112
2023-05-17T13:11:09.157Z,38.8879
2023-05-17T13:12:17.168Z,38.6846
2023-05-17T13:13:25.252Z,41.3980
2023-05-17T13:14:33.193Z,39.6139
2023-05-17T13:15:41.259Z,39.3658
2023-05-17T13:16:49.373Z,37.7857
2023-05-17T13:17:57.547Z,39.0409
2023-05-17T13:19:05.625Z,38.4572
2023-05-17T13:20:13.911Z,38.5893
2023-05-17T13:21:21.671Z,40.4361
2023-05-17T13:22:29.814Z,40.6679
2023-05-17T13:23:37.957Z,38.9670
2023-05-17T13:24:45.882Z,43.2166
2023-05-17T13:25:54.029Z,43.9071
2023-05-17T13:27:02.016Z,41.6351
2023-05-17T13:28:10.143Z,44.6300
2023-05-17T13:29:22.911Z,46.1079
2023-05-17T13:30:31.107Z,44.6382
2023-05-17T13:31:39.148Z,44.5735
2023-05-17T13:32:47.465Z,41.9561
2023-05-17T13:33:55.387Z,40.4711
2023-05-17T13:35:03.347Z,40.2144
2023-05-17T13:36:11.402Z,44.1298
2023-05-17T13:37:19.440Z,43.0918
2023-05-17T13:38:27.511Z,39.8469
2023-05-17T13:39:35.745Z,39.5086
2023-05-17T13:40:43.644Z,39.4660
2023-05-17T13:41:51.742Z,44.3903
2023-05-17T13:42:59.670Z,42.6689
2023-05-17T13:44:07.723Z,48.2450